METAR Data
IDs: Format: Raw Decoded Include TAF

Data at: 0946 UTC 28 Sep 2021

METAR for:TNCM (St Maarten Intl, --, MN)
Text:TNCM 280900Z 08004KT 060V120 9999 FEW018 28/24 Q1014
Temperature: 28.0°C ( 82°F)
Dewpoint: 24.0°C ( 75°F) [RH = 79%]
Pressure (altimeter):29.94 inches Hg (1014.0 mb)
Winds:from the E (80 degrees) at 5 MPH (4 knots; 2.1 m/s)
Visibility:6 or more sm (10+ km)
Ceiling:at least 12,000 feet AGL
Clouds: few clouds at 1800 feet AGL